Weather observations for the past three days for
Pratt Municipal
Imperial (Metric)
Date Time (cdt) Wind (mph) Vis. (mi.) Weather Sky Cond. Temperature (ºF) Relative Humidity Wind Chill (°F) Heat Index (°F) Pressure Precipitation (in)
Air Dwpt 6 hour altimeter (in) sea level (mb) 1 hr 3 hr 6 hr
Max. Min.
05 18:55 SE 8 10.00 Fair CLR 94.8 60.1 101.8 94.8 31% 95 29.91 0.0
05 18:35 SE 7 10.00 Fair CLR 95.5 59.9 31% 95 29.92 0.0
05 18:15 SE 8 10.00 Fair CLR 96.1 59.7 30% 96 29.92 0.0
05 17:55 SE 7 10.00 Fair CLR 97.2 59 28% 97 29.92 0.0
05 17:35 SE 8 10.00 Fair CLR 97.5 59.2 28% 97 29.91 0.0
05 17:15 SE 7 10.00 Fair CLR 97.7 59.7 28% 98 29.91 0.0
05 16:55 SE 13 G 20 10.00 Fair CLR 100.8 59.2 25% 101 29.91 0.0
05 16:35 S 10 G 18 10.00 Fair CLR 99.5 59.9 27% 100 29.91 0.0
05 16:15 SE 13 G 17 10.00 Partly Cloudy SCT085 100.8 59.9 26% 101 29.91 0.0
05 15:55 SE 12 G 20 10.00 Partly Cloudy SCT085 100.9 60.1 26% 102 29.91 0.0
05 15:35 SE 14 G 17 10.00 Partly Cloudy SCT085 100.8 58.6 25% 101 29.92 0.0
05 14:55 S 5 G 18 10.00 Partly Cloudy SCT080 100.6 60.1 26% 101 29.94 0.0
05 12:55 S 14 10.00 Fair CLR 98.6 62.6 98.6 78.1 31% 100 29.97 0.0
05 12:35 S 9 G 21 10.00 Fair CLR 98.2 63.3 32% 100 29.97 0.0
05 12:15 S 13 G 25 10.00 Fair CLR 98.4 64.2 33% 101 29.98 0.0
05 11:55 S 12 G 17 10.00 Fair CLR 96.8 64.6 35% 99 29.98 0.0
05 11:35 S 13 10.00 Fair CLR 96.4 64.9 36% 99 29.98 0.0
05 11:15 S 12 G 17 10.00 Fair CLR 94.6 64.8 37% 97 29.98 0.0
05 10:55 S 15 G 18 10.00 Fair CLR 93.2 64.6 39% 95 29.98 0.0
05 10:35 SW 13 10.00 Fair CLR 91.6 64.6 41% 93 29.98 0.0
05 10:15 S 14 10.00 Fair CLR 90.7 64.8 42% 93 29.97 0.0
05 09:55 SW 14 10.00 Fair CLR 88.9 64.8 45% 91 29.97 0.0
05 09:35 SW 17 10.00 Fair CLR 86.9 64.6 47% 88 29.97 0.0
05 09:15 S 13 G 16 10.00 Fair CLR 85.8 64.6 49% 87 29.97 0.0
05 08:55 S 12 10.00 Fair CLR 82.6 64.6 55% 84 29.96 0.0
05 08:35 S 12 10.00 Fair CLR 80.8 64.4 58% 82 29.96 0.0
05 08:20 S 12 10.00 Fair CLR 80.1 64.4 59% 82 29.96 0.0
05 07:35 S 9 10.00 Fair CLR 78.4 64.4 62% 80 29.95 0.0
05 07:15 S 9 10.00 Fair CLR 78.8 64.4 61% 81 29.94 0.0
05 06:55 S 8 10.00 Fair CLR 78.1 64.4 87.1 77.4 63% 80 29.94 0.0
05 06:35 S 6 10.00 Fair CLR 78.6 64.4 62% 80 29.94 0.0
05 06:10 S 6 10.00 Fair CLR 78.8 64.4 61% 81 29.95 0.0
05 05:55 S 7 10.00 Fair CLR 79.3 64.4 60% 81 29.95 0.0
05 05:35 S 9 10.00 Fair CLR 80.4 64.2 58% 82 29.95 0.0
05 05:15 S 9 10.00 Fair CLR 80.6 64 57% 82 29.94 0.0
05 04:55 S 9 10.00 Fair CLR 80.6 64.2 58% 82 29.95 0.0
05 04:35 S 12 10.00 Fair CLR 80.4 64 58% 82 29.95 0.0
05 04:15 S 10 10.00 Fair CLR 80.6 64 57% 82 29.95 0.0
05 03:55 S 9 10.00 Fair CLR 80.6 63.9 57% 82 29.95 0.0
05 03:35 S 10 10.00 Fair CLR 81.3 63.9 55% 83 29.95 0.0
05 03:15 S 13 10.00 Fair CLR 82 64 55% 84 29.95 0.0
05 02:55 S 14 G 21 10.00 Fair CLR 82.9 64 53% 84 29.95 0.0
05 02:35 S 15 10.00 Fair CLR 83.7 64.4 52% 85 29.96 0.0
05 02:15 S 16 10.00 Fair CLR 84.4 64.2 51% 86 29.96 0.0
05 01:55 S 14 G 20 10.00 Fair CLR 85.6 64 49% 87 29.96 0.0
05 01:35 S 14 G 22 10.00 Fair CLR 86.4 64 47% 88 29.96 0.0
05 01:15 S 15 G 22 10.00 Fair CLR 86.9 64 47% 88 29.95 0.0
05 00:55 S 15 10.00 Fair CLR 87.1 63.9 97.7 85.5 46% 88 29.93 0.0
05 00:35 S 14 G 20 10.00 Fair CLR 87.3 63.7 45% 88 29.93 0.0
05 00:15 SE 12 10.00 Fair CLR 86.7 63.7 46% 88 29.93 0.0
04 23:55 SE 9 10.00 Fair CLR 86 63.5 47% 87 29.94 0.0
04 23:35 SE 7 10.00 Fair CLR 85.5 63 47% 86 29.95 0.0
04 23:15 SE 8 10.00 Fair CLR 85.6 63.1 47% 87 29.95 0.0
04 22:55 SE 7 10.00 Fair CLR 86.2 63.1 46% 87 29.95 0.0
04 22:35 SE 7 10.00 Fair CLR 86.5 63 45% 87 29.95 0.0
04 22:15 SE 7 10.00 Fair CLR 86.5 62.8 45% 87 29.95 0.0
04 21:55 SE 7 10.00 Fair CLR 87.1 62.8 44% 88 29.94 0.0
04 21:35 SE 7 10.00 Fair CLR 88.3 63 43% 89 29.94 0.0
04 21:15 SE 7 10.00 Fair CLR 88.7 63 42% 90 29.93 0.0
04 20:55 SE 6 10.00 Fair CLR 89.8 63.1 41% 91 29.92 0.0
04 20:35 SE 8 10.00 Fair CLR 90.9 63.3 40% 92 29.9 0.0
04 20:15 SE 7 10.00 Fair CLR 91.6 63.5 39% 93 29.89 0.0
04 19:55 SE 8 10.00 Fair CLR 93.2 61.5 35% 94 29.89 0.0
04 19:35 SE 9 10.00 Fair CLR 95.5 61.5 32% 96 29.89 0.0
04 19:15 S 13 G 20 10.00 Fair CLR 96.8 60.8 30% 97 29.89 0.0
04 18:55 SE 10 10.00 Fair CLR 97.7 61.2 100.6 94.3 30% 98 29.89 0.0
04 18:35 SE 15 10.00 Fair CLR 98.6 62.6 31% 100 29.88 0.0
04 18:15 S 14 G 18 10.00 Fair CLR 99 61.2 29% 100 29.88 0.0
04 17:55 SE 14 G 18 10.00 Fair CLR 99.5 58.5 26% 99 29.88 0.0
04 17:35 S 12 10.00 Fair CLR 99.7 59.5 27% 100 29.88 0.0
04 17:15 SE 13 G 21 10.00 Fair CLR 99.5 60.8 28% 100 29.88 0.0
04 16:55 S 14 G 20 10.00 Fair CLR 100 61 28% 101 29.88 0.0
04 16:35 SE 14 G 21 10.00 Fair CLR 100 61.3 28% 101 29.88 0.0
04 16:15 SE 13 G 20 10.00 Fair CLR 99.9 62.8 30% 102 29.89 0.0
04 15:55 S 17 G 22 10.00 Fair CLR 100.2 62.2 29% 102 29.89 0.0
04 15:35 SE 10 G 20 10.00 Fair CLR 99.7 62.4 29% 101 29.9 0.0
04 15:15 S 12 G 20 10.00 Fair CLR 99.3 60.6 28% 100 29.91 0.0
04 14:55 SE 13 G 18 10.00 Fair CLR 98.6 63.1 31% 101 29.91 0.0
04 14:35 SE 14 G 18 10.00 Fair CLR 98.2 64.2 33% 101 29.91 0.0
04 14:15 SE 16 10.00 Fair CLR 97.9 65.5 35% 101 29.92 0.0
04 13:55 SE 12 G 18 10.00 Fair CLR 96.3 65.8 37% 100 29.93 0.0
04 13:35 S 12 G 18 10.00 Fair CLR 95.9 66.2 38% 99 29.93 0.0
04 13:15 S 14 G 18 10.00 Fair CLR 95.4 66.2 38% 99 29.94 0.0
04 12:55 S 10 10.00 Fair CLR 93.9 68 93.9 74.5 43% 98 29.95 0.0
04 12:35 SE 10 G 16 10.00 Fair CLR 92.5 68.7 46% 97 29.95 0.0
04 12:15 S 13 G 20 10.00 Fair CLR 91.2 68.9 48% 96 29.95 0.0
04 11:55 S 10 G 16 10.00 Fair CLR 90.3 69.4 50% 95 29.96 0.0
04 11:35 S 9 G 17 10.00 Fair CLR 88.3 69.4 54% 93 29.96 0.0
04 11:15 S 10 10.00 Fair CLR 87.4 69.6 56% 92 29.96 0.0
04 10:55 S 13 10.00 Fair CLR 85.5 69.4 59% 90 29.95 0.0
04 10:35 S 16 G 22 10.00 Fair CLR 84.6 69.4 61% 89 29.95 0.0
04 10:15 S 12 10.00 Fair CLR 83.3 69.6 63% 87 29.95 0.0
04 09:55 S 12 G 21 10.00 Fair CLR 81.5 69.4 67% 85 29.95 0.0
04 09:35 S 15 G 20 10.00 Fair CLR 80.1 69.3 70% 83 29.95 0.0
04 09:15 S 14 10.00 Fair CLR 79 69.6 73% 82 29.95 0.0
04 08:55 S 14 G 18 10.00 Fair CLR 77.9 69.4 75% 80 29.96 0.0
04 08:35 S 12 10.00 Fair CLR 77 69.4 78% 79 29.95 0.0
04 08:15 S 9 10.00 Fair CLR 75.9 69.8 81% 77 29.95 0.0
04 07:55 S 12 10.00 Fair CLR 75.2 69.8 83% 75 29.94 0.0
04 07:35 S 10 10.00 Fair CLR 74.5 69.8 85% 29.95 0.0
04 07:15 S 9 10.00 Fair CLR 74.5 69.8 85% 29.93 0.0
04 06:55 S 10 10.00 Fair CLR 74.8 69.4 82.6 74.8 83% 29.93 0.0
04 06:35 S 9 10.00 Fair CLR 75.2 69.3 82% 76 29.93 0.0
04 06:15 S 9 10.00 Fair CLR 75.6 69.1 80% 76 29.93 0.0
04 05:55 S 12 10.00 Fair CLR 76.1 68.9 78% 77 29.92 0.0
04 05:35 S 8 10.00 Fair CLR 76.3 68.9 78% 78 29.93 0.0
04 05:15 S 8 10.00 Fair CLR 76.6 68.9 77% 78 29.93 0.0
04 04:55 S 12 10.00 Fair CLR 77.2 68.7 75% 79 29.92 0.0
04 04:35 S 12 G 16 10.00 Fair CLR 77.5 68.5 74% 79 29.92 0.0
04 04:15 S 12 10.00 Fair CLR 77.9 68.4 73% 80 29.92 0.0
04 03:55 S 12 10.00 Fair CLR 78.3 68.2 71% 80 29.92 0.0
04 03:35 S 12 10.00 Fair CLR 78.8 68 70% 81 29.92 0.0
04 03:15 S 10 10.00 Fair CLR 79.3 68 68% 82 29.92 0.0
04 02:55 S 14 G 20 10.00 Fair CLR 79.7 67.8 67% 82 29.92 0.0
04 02:35 S 13 G 18 10.00 Fair CLR 80.2 67.6 66% 83 29.93 0.0
04 02:15 S 12 10.00 Fair CLR 80.6 67.5 64% 83 29.93 0.0
04 01:55 S 12 G 17 10.00 Fair CLR 81.1 67.3 63% 84 29.93 0.0
04 01:35 S 13 10.00 Fair CLR 81.7 67.1 61% 84 29.93 0.0
04 01:15 S 13 10.00 Fair CLR 82.4 67.1 60% 85 29.92 0.0
04 00:55 S 13 10.00 Fair CLR 82.6 66.7 98.8 82.6 59% 85 29.92 0.0
04 00:35 S 13 G 21 10.00 Fair CLR 83.3 66.6 57% 86 29.91 0.0
04 00:15 S 15 G 21 10.00 Fair CLR 83.5 66.2 56% 86 29.91 0.0
03 23:55 S 15 G 21 10.00 Fair CLR 84.2 66 54% 86 29.9 0.0
03 23:35 S 14 G 18 10.00 Fair CLR 84.6 65.5 53% 87 29.9 0.0
03 23:15 SE 15 G 22 10.00 Fair CLR 85.3 65.3 51% 87 29.89 0.0
03 22:55 S 14 10.00 Fair CLR 86.4 65.1 49% 88 29.89 0.0
03 22:35 S 17 G 22 10.00 Fair CLR 87.1 64.8 48% 89 29.89 0.0
03 22:15 S 16 10.00 Fair CLR 88.2 64.6 46% 90 29.89 0.0
03 21:55 S 16 G 24 10.00 Fair CLR 89.1 64.4 44% 91 29.88 0.0
03 21:35 S 17 G 26 10.00 Fair CLR 90.3 63.5 41% 91 29.87 0.0
03 21:15 SE 13 G 21 10.00 Fair CLR 91 62.1 38% 92 29.87 0.0
03 20:55 SE 13 G 18 10.00 Fair CLR 91.6 61 36% 92 29.85 0.0
03 20:35 SE 15 10.00 Fair CLR 93.2 60.8 34% 93 29.84 0.0
03 20:15 SE 13 10.00 Fair CLR 94.3 60.3 32% 94 29.83 0.0
03 19:55 S 15 G 21 10.00 Fair CLR 95.2 60.4 32% 95 29.83 0.0
03 19:35 SE 18 G 22 10.00 Fair CLR 96.4 60.8 31% 97 29.82 0.0
03 19:15 SE 15 G 23 10.00 Fair CLR 97.7 61 30% 98 29.82 0.0
03 18:55 SE 15 G 24 10.00 Fair CLR 98.8 60.8 103.8 97.9 29% 99 29.82 0.0
03 18:35 SE 17 G 21 10.00 Fair CLR 99.9 61 28% 101 29.82 0.0
03 18:15 S 16 10.00 Fair CLR 100.9 60.6 27% 102 29.82 0.0
03 17:55 S 18 G 23 10.00 Fair CLR 101.7 59.9 25% 102 29.81 0.0
03 17:35 S 15 G 24 10.00 Fair CLR 101.7 60.1 25% 102 29.81 0.0
03 17:15 S 17 G 23 10.00 Fair CLR 102.4 59.4 24% 103 29.81 0.0
03 16:55 S 15 G 28 10.00 Fair CLR 102.6 59.9 25% 103 29.82 0.0
03 16:35 S 15 G 21 10.00 Fair CLR 102.2 61 26% 104 29.83 0.0
03 16:15 S 18 G 25 10.00 Fair CLR 101.7 60.4 26% 103 29.83 0.0
03 15:55 S 18 G 25 10.00 Fair CLR 102.7 59.7 24% 103 29.84 0.0
03 15:35 S 16 G 25 10.00 Fair CLR 103.6 57.9 22% 104 29.84 0.0
03 15:15 S 20 G 25 10.00 Fair CLR 102.2 61 26% 104 29.84 0.0
03 14:55 S 23 G 28 10.00 Fair and Breezy CLR 102 59.7 25% 103 29.85 0.0
03 14:35 S 22 G 29 10.00 Fair and Breezy CLR 102 60.4 25% 103 29.85 0.0
03 14:15 S 17 G 28 10.00 Fair CLR 100.8 62.1 28% 102 29.86 0.0
03 13:55 S 23 G 30 10.00 Fair and Breezy CLR 100.2 62.1 29% 102 29.87 0.0
03 13:35 S 17 G 24 10.00 Fair CLR 100.4 59.7 26% 101 29.88 0.0
03 13:15 S 16 G 25 10.00 Fair CLR 99.1 59.2 27% 99 29.88 0.0
03 12:55 S 23 G 28 10.00 Fair and Breezy CLR 98.4 61 98.8 79.2 29% 99 29.89 0.0
03 12:35 S 21 G 29 10.00 Fair and Breezy CLR 97.3 62.2 31% 99 29.9 0.0
03 12:15 S 22 G 28 10.00 Fair and Breezy CLR 96.1 62.4 33% 97 29.91 0.0
03 11:55 S 21 G 29 10.00 Fair and Breezy CLR 95.2 63 34% 97 29.92 0.0
03 11:35 S 21 G 28 10.00 Fair and Breezy CLR 94.1 64 37% 96 29.92 0.0
03 11:15 S 23 G 28 10.00 Fair and Breezy CLR 92.1 64.4 40% 94 29.92 0.0
03 10:55 S 22 10.00 Fair and Breezy CLR 91.6 64 40% 93 29.92 0.0
03 10:35 S 18 G 25 10.00 Fair CLR 87.8 64.4 46% 89 29.92 0.0
03 10:15 S 22 10.00 Partly Cloudy and Breezy SCT120 88.5 64.8 45% 90 29.92 0.0
03 09:55 S 20 10.00 Partly Cloudy SCT110 86 64.6 49% 88 29.92 0.0
03 09:35 S 22 G 25 10.00 Partly Cloudy and Breezy SCT095 SCT120 83.7 64.8 53% 85 29.93 0.0
03 09:15 S 15 G 23 10.00 Mostly Cloudy BKN110 82 64.8 56% 84 29.93 0.0
03 08:55 S 17 G 21 10.00 Mostly Cloudy BKN110 81 64.6 58% 83 29.94 0.0
03 08:35 S 14 10.00 Partly Cloudy SCT120 80.1 64.4 59% 82 29.93 0.0
03 08:15 S 15 10.00 Partly Cloudy SCT120 80.1 64.4 59% 82 29.94 0.0
03 07:55 S 15 10.00 Fair CLR 79.7 63.9 59% 81 29.92 0.0
03 07:35 S 15 10.00 Fair CLR 79.7 63.7 58% 81 29.92 0.0
03 07:15 S 14 10.00 Fair CLR 79.2 63.5 59% 81 29.93 0.0
03 06:55 S 14 10.00 Fair CLR 79.7 63 85.3 79.7 57% 81 29.93 0.0
03 06:35 S 14 10.00 Fair CLR 79.9 62.8 56% 81 29.92 0.0
03 06:20 S 16 10.00 Fair CLR 80.1 62.6 55% 81 29.92 0.0
03 05:35 S 15 10.00 Fair CLR 80.6 62.1 53% 82 29.92 0.0
03 05:15 S 15 10.00 Fair CLR 80.6 61.9 53% 82 29.92 0.0
03 04:55 S 15 10.00 Fair CLR 80.8 61.7 52% 82 29.93 0.0
03 04:35 S 14 10.00 Fair CLR 81 61.5 52% 82 29.93 0.0
03 04:15 S 15 10.00 Fair CLR 81 61.2 51% 82 29.93 0.0
03 03:55 S 14 G 18 10.00 Fair CLR 80.8 61 51% 82 29.93 0.0
03 03:35 S 14 10.00 Fair CLR 80.6 60.8 51% 81 29.93 0.0
03 03:15 S 13 10.00 Fair CLR 81.3 60.8 50% 82 29.93 0.0
03 02:55 S 12 10.00 Fair CLR 82.4 60.8 48% 83 29.92 0.0
03 02:35 S 13 10.00 Fair CLR 82.9 60.4 47% 83 29.92 0.0
03 02:15 S 14 G 18 10.00 Fair CLR 83.3 60.3 46% 84 29.92 0.0
03 01:55 S 14 G 20 10.00 Fair CLR 84.2 60.3 44% 84 29.92 0.0
03 01:35 S 14 10.00 Fair CLR 84.2 60.1 44% 84 29.92 0.0
03 01:15 S 14 G 20 10.00 Fair CLR 85.1 60.1 43% 85 29.92 0.0
03 00:55 S 15 10.00 Fair CLR 85.5 60.1 98.8 85.5 42% 85 29.92 0.0
03 00:35 S 16 10.00 Fair CLR 86.4 60.1 41% 86 29.92 0.0
03 00:15 S 16 G 23 10.00 Fair CLR 87.6 60.1 40% 87 29.91 0.0
02 23:55 S 17 G 23 10.00 Fair CLR 88.2 59.9 39% 88 29.91 0.0
02 23:35 S 16 G 24 10.00 Fair CLR 88.7 59.9 38% 88 29.91 0.0
02 23:15 S 16 G 24 10.00 Fair CLR 88.9 59.9 38% 88 29.91 0.0
02 22:55 S 16 G 21 10.00 Fair CLR 89.1 59.5 37% 88 29.91 0.0
02 22:35 S 17 G 22 10.00 Fair CLR 89.6 59 36% 89 29.91 0.0
02 22:15 S 15 G 22 10.00 Fair CLR 90 58.3 34% 89 29.91 0.0
02 21:55 S 14 G 21 10.00 Fair CLR 90.5 57.2 33% 89 29.9 0.0
02 21:35 S 15 G 20 10.00 Fair CLR 91.4 57.2 32% 90 29.89 0.0
02 21:15 S 15 G 21 10.00 Fair CLR 91.8 56.8 31% 90 29.88 0.0
02 20:55 S 14 G 21 10.00 Fair CLR 92.3 57.2 31% 91 29.88 0.0
02 20:35 SE 14 10.00 Fair CLR 93.2 57 30% 92 29.87 0.0
02 20:15 SE 15 10.00 Fair CLR 94.1 56.8 29% 93 29.87 0.0
02 19:55 SE 17 G 21 10.00 Fair CLR 95.2 56.5 27% 94 29.87 0.0
02 19:35 SE 13 G 20 10.00 Fair CLR 96.8 55.9 25% 95 29.87 0.0
02 19:15 S 16 G 22 10.00 Fair CLR 97.9 55.2 24% 96 29.87 0.0
Date Time (cdt) Wind (mph) Vis. (mi.) Weather Sky Cond. Air Dwpt Max. Min. Relative Humidity Wind Chill (°F) Heat Index (°F) altimeter (in) sea level (mb) 1 hr 3 hr 6 hr
6 hour
Temperature (ºF) Pressure Precipitation (in)